Flight Number: AVA1531 Duration: 3:00
Departure: Kiev Borispol (UKBB) at 10:15 Distance: 1109.33 Nm
Arrival: Murmansk (ULMM) at 13:15 Equipment: MD-81

Weather Information
Boryspil, Ukraine (UKBB) 50-20N 030-58E 122M Feb 23, 2022 - 10:30 PM EST / 2022.02.24 0330 UTC
Wind: from the S (190 degrees) at 2 MPH (2 KT):0
Visibility: 3 mile(s):0
Sky conditions: mostly cloudy Weather: light rain; mist Temperature: 33 F (1 C) Dew Point: 33 F (1 C) Relative Humidity: 100% Pressure (altimeter): 30.12 in. Hg (1020 hPa)
ob: UKBB 240330Z 19001MPS 5000 -RA BR SCT008 BKN016 01/01 Q1020 TEMPO 1000 BR cycle: 3
Sunrise: 01:49 Sunset: 18:06 (UTC)

Murmansk, Russia (ULMM) 68-58N 033-03E 51M Jun 19, 2024 - 10:30 AM EDT / 2024.06.19 1430 UTC
Wind: from the E (090 degrees) at 11 MPH (10 KT):0
Visibility: 5 mile(s):0
Sky conditions: mostly cloudy Weather: light rain showers; Cumulonimbus clouds observed Temperature: 51 F (11 C) Dew Point: 51 F (11 C) Relative Humidity: 100% Pressure (altimeter): 29.44 in. Hg (0997 hPa)
ob: ULMM 191430Z 09005MPS 9000 -SHRA BKN012CB 11/11 Q0997 R13/290157 NOSIG RMK QFE741 cycle: 14
Sunrise: Sunset: (UTC)

TAF:2024/06/19 15:24 TAF TAF ULMM 1915/2015 09005G10MPS 6000 -SHRA BKN011CB BECMG 1918/1920 17003MPS BKN016CB BECMG 2006/2008 26003G08MPS TEMPO 2009/2015 30003G08MPS

Previous Pireps for this route
Date Flightnr Aircraft Flight time Fuel used Landing rate On time
2017-10-30AVA1531MD-8103.0919488-185Yes
2019-12-03AVA1531MD-8102.5121612-258Yes
2021-02-14AVA1531MD-8102.5018415-211Yes
2022-02-10AVA1531MD-8102.5918069-164Yes
2023-02-23AVA1531MD-8103.1719557-121Yes
(pireps marked green are flown by you)

Route map